Current Weather

Leesburg Exec

Leesburg, Virginia (KJYO)

Report from: Wednesday, May 29, 2024 4:15 AM EDT
Current time: Wednesday, May 29, 2024 4:40 AM EDT

Nearby weather – Weather history – Daily summaries
Weather forecast

Temperature15.0°C (59.0°F)
Dew point12.0°C (53.6°F)
Winds Calm
Visibility10 mi. (16.1 km)
Clouds Sky clear
Altimeter29.94 in.Hg (1014 mB)
Relative humidity82 %
Density altitude175 ft. (53 m)
Remarks Fully automated report
Automated weather observing station with precipitation discriminator
Flight conditions Visual Meteorological Conditions
Raw dataKJYO 290815Z AUTO 00000KT 10SM CLR 15/12 A2994 RMK AO2
An error has occurred. This application may no longer respond until reloaded. Reload 🗙